Map

Track Data

SID SEASON NUMBER BASIN SUBBASIN NAME ISO_TIME NATURE LAT LON WMO_WIND WMO_PRES WMO_AGENCY TRACK_TYPE DIST2LAND LANDFALL IFLAG USA_AGENCY USA_ATCF_ID USA_LAT USA_LON USA_RECORD USA_STATUS USA_WIND USA_PRES USA_SSHS USA_R34_NE USA_R34_SE USA_R34_SW USA_R34_NW USA_R50_NE USA_R50_SE USA_R50_SW USA_R50_NW USA_R64_NE USA_R64_SE USA_R64_SW USA_R64_NW USA_POCI USA_ROCI USA_RMW USA_EYE TOKYO_LAT TOKYO_LON TOKYO_GRADE TOKYO_WIND TOKYO_PRES TOKYO_R50_DIR TOKYO_R50_LONG TOKYO_R50_SHORT TOKYO_R30_DIR TOKYO_R30_LONG TOKYO_R30_SHORT TOKYO_LAND CMA_LAT CMA_LON CMA_CAT CMA_WIND CMA_PRES HKO_LAT HKO_LON HKO_CAT HKO_WIND HKO_PRES NEWDELHI_LAT NEWDELHI_LON NEWDELHI_GRADE NEWDELHI_WIND NEWDELHI_PRES NEWDELHI_CI NEWDELHI_DP NEWDELHI_POCI REUNION_LAT REUNION_LON REUNION_TYPE REUNION_WIND REUNION_PRES REUNION_TNUM REUNION_CI REUNION_RMW REUNION_R34_NE REUNION_R34_SE REUNION_R34_SW REUNION_R34_NW REUNION_R50_NE REUNION_R50_SE REUNION_R50_SW REUNION_R50_NW REUNION_R64_NE REUNION_R64_SE REUNION_R64_SW REUNION_R64_NW BOM_LAT BOM_LON BOM_TYPE BOM_WIND BOM_PRES BOM_TNUM BOM_CI BOM_RMW BOM_R34_NE BOM_R34_SE BOM_R34_SW BOM_R34_NW BOM_R50_NE BOM_R50_SE BOM_R50_SW BOM_R50_NW BOM_R64_NE BOM_R64_SE BOM_R64_SW BOM_R64_NW BOM_ROCI BOM_POCI BOM_EYE BOM_POS_METHOD BOM_PRES_METHOD NADI_LAT NADI_LON NADI_CAT NADI_WIND NADI_PRES WELLINGTON_LAT WELLINGTON_LON WELLINGTON_WIND WELLINGTON_PRES DS824_LAT DS824_LON DS824_STAGE DS824_WIND DS824_PRES TD9636_LAT TD9636_LON TD9636_STAGE TD9636_WIND TD9636_PRES TD9635_LAT TD9635_LON TD9635_WIND TD9635_PRES TD9635_ROCI NEUMANN_LAT NEUMANN_LON NEUMANN_CLASS NEUMANN_WIND NEUMANN_PRES MLC_LAT MLC_LON MLC_CLASS MLC_WIND MLC_PRES USA_GUST BOM_GUST BOM_GUST_PER REUNION_GUST REUNION_GUST_PER USA_SEAHGT USA_SEARAD_NE USA_SEARAD_SE USA_SEARAD_SW USA_SEARAD_NW STORM_SPEED STORM_DIR
1980260N13256 1980 78 EP MM KAY 1980-09-16 06:00:00 TS 12.7000 -103.800 30 hurdat_epa main 590 590 O________OO___ hurdat_epa EP111980 12.7000 -103.800 TD 30 -1 12.7000 -103.800 TC 30 12.7000 -103.800 1 30 8 275
1980260N13256 1980 78 EP MM KAY 1980-09-16 09:00:00 TS 12.7329 -104.207 main 613 613 P________PP___ EP111980 12.7326 -104.205 TD 32 -1 12.7326 -104.205 TC 32 12.7338 -104.214 1 32 8 277
1980260N13256 1980 78 EP MM KAY 1980-09-16 12:00:00 TS 12.8000 -104.600 35 hurdat_epa main 620 616 O________OO___ hurdat_epa EP111980 12.8000 -104.600 TS 35 0 12.8000 -104.600 TC 35 12.8000 -104.600 2 35 8 285
1980260N13256 1980 78 EP MM KAY 1980-09-16 15:00:00 TS 12.9266 -104.965 main 623 609 P________PP___ EP111980 12.9275 -104.972 TS 42 0 12.9275 -104.972 TC 42 12.9232 -104.937 2 41 7 294
1980260N13256 1980 78 EP MM KAY 1980-09-16 18:00:00 TS 13.0987 -105.288 50 hurdat_epa main 613 599 O________OP___ hurdat_epa EP111980 13.1000 -105.300 TS 50 0 13.1000 -105.300 TC 50 13.0935 -105.237 2 47 7 303
1980260N13256 1980 78 EP MM KAY 1980-09-16 21:00:00 TS 13.2923 -105.550 main 599 586 P________PP___ EP111980 13.2924 -105.558 TS 55 0 13.2924 -105.558 TC 55 13.2920 -105.519 2 53 6 309
1980260N13256 1980 78 EP MM KAY 1980-09-17 00:00:00 TS 13.5000 -105.800 60 hurdat_epa main 590 580 O________OO___ hurdat_epa EP111980 13.5000 -105.800 TS 60 0 13.5000 -105.800 TC 60 13.5000 -105.800 2 60 7 308
1980260N13256 1980 78 EP MM KAY 1980-09-17 03:00:00 TS 13.6995 -106.094 main 585 576 P________PP___ EP111980 13.7000 -106.093 TS 62 0 13.7000 -106.093 TC 62 13.6975 -106.100 2 62 7 304
1980260N13256 1980 78 EP MM KAY 1980-09-17 06:00:00 TS 13.9000 -106.400 65 hurdat_epa main 581 574 O________OO___ hurdat_epa EP111980 13.9000 -106.400 HU 65 1 13.9000 -106.400 TC 65 13.9000 -106.400 3 65 7 304
1980260N13256 1980 78 EP MM KAY 1980-09-17 09:00:00 TS 14.0734 -106.672 main 581 576 P________PP___ EP111980 14.0698 -106.670 HU 77 1 14.0698 -106.670 TC 77 14.0876 -106.678 3 77 7 305
1980260N13256 1980 78 EP MM KAY 1980-09-17 12:00:00 TS 14.3000 -107.000 90 hurdat_epa main 583 579 O________OO___ hurdat_epa EP111980 14.3000 -107.000 HU 90 2 14.3000 -107.000 TC 90 14.3000 -107.000 4 90 10 308
1980260N13256 1980 78 EP MM KAY 1980-09-17 15:00:00 TS 14.6712 -107.452 main 579 567 P________PP___ EP111980 14.6925 -107.462 HU 90 2 14.6925 -107.462 TC 90 14.5860 -107.409 4 92 12 309
1980260N13256 1980 78 EP MM KAY 1980-09-17 18:00:00 TS 15.0638 -107.981 90 hurdat_epa main 571 568 O________OP___ hurdat_epa EP111980 15.1000 -108.000 HU 90 2 15.1000 -108.000 TC 90 14.9188 -107.903 4 95 12 303
1980260N13256 1980 78 EP MM KAY 1980-09-17 21:00:00 TS 15.3513 -108.516 main 578 578 P________PP___ EP111980 15.3723 -108.528 HU 95 2 15.3723 -108.528 TC 95 15.2672 -108.471 4 97 12 296
1980260N13256 1980 78 EP MM KAY 1980-09-18 00:00:00 TS 15.6000 -109.100 100 hurdat_epa main 608 608 O________OO___ hurdat_epa EP111980 15.6000 -109.100 HU 100 3 15.6000 -109.100 TC 100 15.6000 -109.100 4 100 13 294
1980260N13256 1980 78 EP MM KAY 1980-09-18 03:00:00 TS 15.8572 -109.717 main 630 630 P________PP___ EP111980 15.8497 -109.713 HU 102 3 15.8497 -109.713 TC 102 15.8871 -109.735 4 103 14 292
1980260N13256 1980 78 EP MM KAY 1980-09-18 06:00:00 TS 16.1103 -110.406 105 hurdat_epa main 673 673 O________OP___ hurdat_epa EP111980 16.1000 -110.400 HU 105 3 16.1000 -110.400 TC 105 16.1513 -110.431 4 107 15 290
1980260N13256 1980 78 EP MM KAY 1980-09-18 09:00:00 TS 16.3637 -111.161 main 724 724 P________PP___ EP111980 16.3572 -111.155 HU 110 3 16.3572 -111.155 TC 110 16.3898 -111.185 4 111 16 288
1980260N13256 1980 78 EP MM KAY 1980-09-18 12:00:00 TS 16.6000 -112.000 115 hurdat_epa main 735 730 O________OO___ hurdat_epa EP111980 16.6000 -112.000 HU 115 4 16.6000 -112.000 TC 115 16.6000 -112.000 4 115 18 285
1980260N13256 1980 78 EP MM KAY 1980-09-18 15:00:00 TS 16.8163 -112.926 main 746 745 P________PP___ EP111980 16.8225 -112.935 HU 117 4 16.8225 -112.935 TC 117 16.7915 -112.888 4 115 18 282
1980260N13256 1980 78 EP MM KAY 1980-09-18 18:00:00 TS 16.9907 -113.886 120 hurdat_epa main 775 775 O________OP___ hurdat_epa EP111980 17.0000 -113.900 HU 120 4 17.0000 -113.900 TC 120 16.9533 -113.828 4 115 18 279
1980260N13256 1980 78 EP MM KAY 1980-09-18 21:00:00 TS 17.1153 -114.808 main 819 819 P________PP___ EP111980 17.1221 -114.815 HU 117 4 17.1221 -114.815 TC 117 17.0883 -114.779 4 115 17 277
1980260N13256 1980 78 EP MM KAY 1980-09-19 00:00:00 TS 17.2000 -115.700 115 hurdat_epa main 872 872 O________OO___ hurdat_epa EP111980 17.2000 -115.700 HU 115 4 17.2000 -115.700 TC 115 17.2000 -115.700 4 115 17 275
1980260N13256 1980 78 EP MM KAY 1980-09-19 03:00:00 TS 17.2582 -116.575 main 930 930 P________PP___ EP111980 17.2497 -116.573 HU 107 3 17.2497 -116.573 TC 107 17.2920 -116.585 4 111 16 274
1980260N13256 1980 78 EP MM KAY 1980-09-19 06:00:00 TS 17.3129 -117.406 100 hurdat_epa main 992 992 O________OP___ hurdat_epa EP111980 17.3000 -117.400 HU 100 3 17.3000 -117.400 TC 100 17.3646 -117.428 4 107 16 275
1980260N13256 1980 78 EP MM KAY 1980-09-19 09:00:00 TS 17.3999 -118.197 main 1032 1032 P________PP___ EP111980 17.3923 -118.195 HU 100 3 17.3923 -118.195 TC 100 17.4299 -118.207 4 103 14 277
1980260N13256 1980 78 EP MM KAY 1980-09-19 12:00:00 TS 17.5000 -118.900 100 hurdat_epa main 1069 1069 O________OO___ hurdat_epa EP111980 17.5000 -118.900 HU 100 3 17.5000 -118.900 TC 100 17.5000 -118.900 4 100 13 279
1980260N13256 1980 78 EP MM KAY 1980-09-19 15:00:00 TS 17.5996 -119.492 main 1103 1103 P________PP___ EP111980 17.5997 -119.495 HU 97 3 17.5997 -119.495 TC 97 17.5991 -119.482 4 95 11 281
1980260N13256 1980 78 EP MM KAY 1980-09-19 18:00:00 TS 17.7010 -119.996 95 hurdat_epa main 1132 1132 O________OP___ hurdat_epa EP111980 17.7000 -120.000 HU 95 2 17.7000 -120.000 TC 95 17.7052 -119.982 4 90 9 283
1980260N13256 1980 78 EP MM KAY 1980-09-19 21:00:00 TS 17.8075 -120.448 main 1154 1154 P________PP___ EP111980 17.8072 -120.450 HU 87 2 17.8072 -120.450 TC 87 17.8088 -120.442 4 85 9 283
1980260N13256 1980 78 EP MM KAY 1980-09-20 00:00:00 TS 17.9000 -120.900 80 hurdat_epa main 1185 1185 O________OO___ hurdat_epa EP111980 17.9000 -120.900 HU 80 1 17.9000 -120.900 TC 80 17.9000 -120.900 4 80 10 279
1980260N13256 1980 78 EP MM KAY 1980-09-20 03:00:00 TS 17.9604 -121.437 main 1217 1217 P________PP___ EP111980 17.9575 -121.443 HU 72 1 17.9575 -121.443 TC 72 17.9721 -121.414 4 73 10 276
1980260N13256 1980 78 EP MM KAY 1980-09-20 06:00:00 TS 18.0059 -121.987 65 hurdat_epa main 1266 1266 O________OP___ hurdat_epa EP111980 18.0000 -122.000 HU 65 1 18.0000 -122.000 TC 65 18.0294 -121.935 4 67 10 276
1980260N13256 1980 78 EP MM KAY 1980-09-20 09:00:00 TS 18.0602 -122.493 main 1301 1301 P________PP___ EP111980 18.0573 -122.500 HU 60 0 18.0573 -122.500 TC 60 18.0720 -122.464 4 61 10 276
1980260N13256 1980 78 EP MM KAY 1980-09-20 12:00:00 TS 18.1000 -123.000 55 hurdat_epa main 1344 1344 O________OO___ hurdat_epa EP111980 18.1000 -123.000 TS 55 0 18.1000 -123.000 TC 55 18.1000 -123.000 2 55 10 273
1980260N13256 1980 78 EP MM KAY 1980-09-20 15:00:00 TS 18.1112 -123.543 main 1379 1379 P________PP___ EP111980 18.1074 -123.543 TS 50 0 18.1074 -123.543 TC 50 18.1262 -123.543 2 52 10 270
1980260N13256 1980 78 EP MM KAY 1980-09-20 18:00:00 TS 18.1074 -124.098 45 hurdat_epa main 1419 1419 O________OP___ hurdat_epa EP111980 18.1000 -124.100 TS 45 0 18.1000 -124.100 TC 45 18.1370 -124.092 2 50 11 270
1980260N13256 1980 78 EP MM KAY 1980-09-20 21:00:00 TS 18.1117 -124.649 main 1453 1453 P________PP___ EP111980 18.1073 -124.650 TS 45 0 18.1073 -124.650 TC 45 18.1293 -124.646 2 47 10 270
1980260N13256 1980 78 EP MM KAY 1980-09-21 00:00:00 TS 18.1000 -125.200 45 hurdat_epa main 1495 1495 O________OO___ hurdat_epa EP111980 18.1000 -125.200 TS 45 0 18.1000 -125.200 TC 45 18.1000 -125.200 2 45 10 267
1980260N13256 1980 78 EP MM KAY 1980-09-21 03:00:00 TS 18.0627 -125.749 main 1531 1531 P________PP___ EP111980 18.0648 -125.750 TS 45 0 18.0648 -125.750 TC 45 18.0541 -125.746 2 45 11 264
1980260N13256 1980 78 EP MM KAY 1980-09-21 06:00:00 TS 17.9973 -126.298 45 hurdat_epa main 1584 1584 O________OP___ hurdat_epa EP111980 18.0000 -126.300 TS 45 0 18.0000 -126.300 TC 45 17.9867 -126.292 2 45 11 262
1980260N13256 1980 78 EP MM KAY 1980-09-21 09:00:00 TS 17.9121 -126.848 main 1629 1629 P________PP___ EP111980 17.9148 -126.850 TS 45 0 17.9148 -126.850 TC 45 17.9010 -126.843 2 45 11 259
1980260N13256 1980 78 EP MM KAY 1980-09-21 12:00:00 TS 17.8000 -127.400 45 hurdat_epa main 1683 1683 O________OO___ hurdat_epa EP111980 17.8000 -127.400 TS 45 0 17.8000 -127.400 TC 45 17.8000 -127.400 2 45 11 256
1980260N13256 1980 78 EP MM KAY 1980-09-21 15:00:00 TS 17.6512 -127.953 main 1737 1737 P________PP___ EP111980 17.6498 -127.943 TS 50 0 17.6498 -127.943 TC 50 17.6569 -127.993 2 48 11 254
1980260N13256 1980 78 EP MM KAY 1980-09-21 18:00:00 TS 17.5010 -128.518 55 hurdat_epa main 1791 1791 O________OP___ hurdat_epa EP111980 17.5000 -128.500 TS 55 0 17.5000 -128.500 TC 55 17.5052 -128.589 2 52 12 256
1980260N13256 1980 78 EP MM KAY 1980-09-21 21:00:00 TS 17.3773 -129.131 main 1846 1846 P________PP___ EP111980 17.3776 -129.123 TS 57 0 17.3776 -129.123 TC 57 17.3758 -129.165 2 56 11 260
1980260N13256 1980 78 EP MM KAY 1980-09-22 00:00:00 TS 17.3000 -129.700 60 hurdat_epa main 1902 1902 O________OO___ hurdat_epa EP111980 17.3000 -129.700 TS 60 0 17.3000 -129.700 TC 60 17.3000 -129.700 2 60 10 263
1980260N13256 1980 78 EP MM KAY 1980-09-22 03:00:00 TS 17.2681 -130.128 main 1934 1934 P________PP___ EP111980 17.2622 -130.123 TS 57 0 17.2622 -130.123 TC 57 17.2921 -130.152 2 57 8 271
1980260N13256 1980 78 EP MM KAY 1980-09-22 06:00:00 TS 17.3087 -130.513 55 hurdat_epa main 1967 1967 O________OP___ hurdat_epa EP111980 17.3000 -130.500 TS 55 0 17.3000 -130.500 TC 55 17.3436 -130.565 2 55 8 281
1980260N13256 1980 78 EP MM KAY 1980-09-22 09:00:00 TS 17.4256 -130.942 main 1994 1994 P________PP___ EP111980 17.4199 -130.935 TS 52 0 17.4199 -130.935 TC 52 17.4484 -130.971 2 52 9 289
1980260N13256 1980 78 EP MM KAY 1980-09-22 12:00:00 TS 17.6000 -131.400 50 hurdat_epa main 2022 2022 O________OO___ hurdat_epa EP111980 17.6000 -131.400 TS 50 0 17.6000 -131.400 TC 50 17.6000 -131.400 2 50 10 292
1980260N13256 1980 78 EP MM KAY 1980-09-22 15:00:00 TS 17.7859 -131.886 main 2051 2051 P________PP___ EP111980 17.7849 -131.885 TS 55 0 17.7849 -131.885 TC 55 17.7899 -131.892 2 55 10 293
1980260N13256 1980 78 EP MM KAY 1980-09-22 18:00:00 TS 18.0040 -132.402 60 hurdat_epa main 2082 2082 O________OP___ hurdat_epa EP111980 18.0000 -132.400 TS 60 0 18.0000 -132.400 TC 60 18.0198 -132.412 2 60 11 295
1980260N13256 1980 78 EP MM KAY 1980-09-22 21:00:00 TS 18.2589 -132.944 main 2107 2107 P________PP___ EP111980 18.2574 -132.942 TS 65 1 18.2574 -132.942 TC 65 18.2648 -132.951 2 65 12 295
1980260N13256 1980 78 EP MM KAY 1980-09-23 00:00:00 TS 18.5000 -133.500 70 hurdat_epa main 2148 2148 O________OO___ hurdat_epa EP111980 18.5000 -133.500 HU 70 1 18.5000 -133.500 TC 70 18.5000 -133.500 4 70 11 291
1980260N13256 1980 78 EP MM KAY 1980-09-23 03:00:00 TS 18.6645 -134.049 main 2182 2122 P________PP___ EP111980 18.6573 -134.050 HU 70 1 18.6573 -134.050 TC 70 18.6931 -134.043 4 70 11 287
1980260N13256 1980 78 EP MM KAY 1980-09-23 06:00:00 TS 18.8144 -134.599 70 hurdat_epa main 2122 2067 O________OP___ hurdat_epa EP111980 18.8000 -134.600 HU 70 1 18.8000 -134.600 TC 70 18.8720 -134.593 4 70 11 288
1980260N13256 1980 78 EP MM KAY 1980-09-23 09:00:00 TS 19.0079 -135.149 main 2067 2003 P________PP___ EP111980 18.9998 -135.150 HU 70 1 18.9998 -135.150 TC 70 19.0399 -135.146 4 70 11 290
1980260N13256 1980 78 EP MM KAY 1980-09-23 12:00:00 TS 19.2000 -135.700 70 hurdat_epa main 2003 1949 O________OO___ hurdat_epa EP111980 19.2000 -135.700 HU 70 1 19.2000 -135.700 TC 70 19.2000 -135.700 4 70 11 289
1980260N13256 1980 78 EP MM KAY 1980-09-23 15:00:00 TS 19.3581 -136.253 main 1938 1885 P________PP___ EP111980 19.3573 -136.250 HU 70 1 19.3573 -136.250 TC 70 19.3610 -136.262 4 71 11 286
1980260N13256 1980 78 EP MM KAY 1980-09-23 18:00:00 TS 19.5029 -136.805 70 hurdat_epa main 1885 1832 O________OP___ hurdat_epa EP111980 19.5000 -136.800 HU 70 1 19.5000 -136.800 TC 70 19.5147 -136.823 4 72 11 286
1980260N13256 1980 78 EP MM KAY 1980-09-23 21:00:00 TS 19.6582 -137.366 main 1821 1769 P________PP___ EP111980 19.6575 -137.365 HU 72 1 19.6575 -137.365 TC 72 19.6611 -137.372 4 73 11 286
1980260N13256 1980 78 EP MM KAY 1980-09-24 00:00:00 TS 19.8000 -137.900 75 hurdat_epa main 1769 1727 O________OO___ hurdat_epa EP111980 19.8000 -137.900 HU 75 1 19.8000 -137.900 TC 75 19.8000 -137.900 4 75 10 285
1980260N13256 1980 78 EP MM KAY 1980-09-24 03:00:00 TS 19.9029 -138.370 main 1716 1674 P________PP___ EP111980 19.8997 -138.358 HU 77 1 19.8997 -138.358 TC 77 19.9156 -138.417 4 76 9 283
1980260N13256 1980 78 EP MM KAY 1980-09-24 06:00:00 TS 20.0054 -138.822 80 hurdat_epa main 1674 1622 O________OP___ hurdat_epa EP111980 20.0000 -138.800 HU 80 1 20.0000 -138.800 TC 80 20.0272 -138.911 4 77 9 285
1980260N13256 1980 78 EP MM KAY 1980-09-24 09:00:00 TS 20.1502 -139.345 main 1622 1570 P________PP___ EP111980 20.1502 -139.337 HU 80 1 20.1502 -139.337 TC 80 20.1501 -139.374 4 78 10 288
1980260N13256 1980 78 EP MM KAY 1980-09-24 12:00:00 TS 20.3000 -139.800 80 hurdat_epa main 1570 1549 O________OO___ hurdat_epa EP111980 20.3000 -139.800 HU 80 1 20.3000 -139.800 TC 80 20.3000 -139.800 4 80 7 291
1980260N13256 1980 78 EP CP KAY 1980-09-24 15:00:00 TS 20.3948 -140.041 main 1549 1518 P________PP___ EP111980 20.3695 -140.001 HU 77 1 20.3695 -140.001 TC 77 20.4958 -140.202 4 78 5 299
1980260N13256 1980 78 EP CP KAY 1980-09-24 18:00:00 TS 20.5418 -140.270 75 hurdat_epa main 1518 1478 O________OP___ hurdat_epa EP111980 20.5000 -140.200 HU 75 1 20.5000 -140.200 TC 75 20.7195 -140.567 4 77 8 306
1980260N13256 1980 78 EP CP KAY 1980-09-24 21:00:00 TS 20.8552 -140.715 main 1479 1429 P________PP___ EP111980 20.8279 -140.684 HU 75 1 20.8279 -140.684 TC 75 20.9585 -140.899 4 76 11 308
1980260N13256 1980 78 EP CP KAY 1980-09-25 00:00:00 TS 21.2000 -141.174 75 hurdat_epa main 1429 1401 O________OO___ hurdat_epa EP111980 21.2000 -141.200 HU 75 1 21.2000 -141.200 TC 75 21.2000 -141.200 4 75 10 309
1980260N13256 1980 78 EP CP KAY 1980-09-25 03:00:00 TS 21.4651 -141.518 main 1402 1374 P________PP___ EP111980 21.4723 -141.545 HU 75 1 21.4723 -141.545 TC 75 21.4288 -141.495 4 73 8 311
1980260N13256 1980 78 EP CP KAY 1980-09-25 06:00:00 TS 21.6929 -141.793 75 hurdat_epa main 1374 1355 O________OP___ hurdat_epa EP111980 21.7000 -141.800 HU 75 1 21.7000 -141.800 TC 75 21.6573 -141.760 4 72 6 313
1980260N13256 1980 78 EP CP KAY 1980-09-25 09:00:00 TS 21.9032 -142.021 main 1357 1339 P________PP___ EP111980 21.9074 -142.023 HU 72 1 21.9074 -142.023 TC 72 21.8821 -141.995 4 71 6 317
1980260N13256 1980 78 EP CP KAY 1980-09-25 12:00:00 TS 22.1000 -142.200 70 hurdat_epa main 1340 1324 O________OO___ hurdat_epa EP111980 22.1000 -142.200 HU 70 1 22.1000 -142.200 TC 70 22.1000 -142.200 4 70 5 322
1980260N13256 1980 78 EP CP KAY 1980-09-25 15:00:00 TS 22.3038 -142.362 main 1324 1317 P________PP___ EP111980 22.3000 -142.358 HU 70 1 22.3000 -142.358 TC 70 22.3232 -142.383 4 70 5 325
1980260N13256 1980 78 EP CP KAY 1980-09-25 18:00:00 TS 22.5062 -142.506 70 hurdat_epa main 1319 1311 O________OP___ hurdat_epa EP111980 22.5000 -142.500 HU 70 1 22.5000 -142.500 TC 70 22.5373 -142.538 4 70 5 327
1980260N13256 1980 78 EP CP KAY 1980-09-25 21:00:00 TS 22.7179 -142.650 main 1304 1300 P________PP___ EP111980 22.7150 -142.643 HU 70 1 22.7150 -142.643 TC 70 22.7327 -142.674 4 70 5 325
1980260N13256 1980 78 EP CP KAY 1980-09-26 00:00:00 TS 22.9000 -142.800 70 hurdat_epa main 1300 1283 O________OO___ hurdat_epa EP111980 22.9000 -142.800 HU 70 1 22.9000 -142.800 TC 70 22.9000 -142.800 4 70 4 314
1980260N13256 1980 78 EP CP KAY 1980-09-26 03:00:00 TS 23.0200 -142.985 main 1283 1276 P________PP___ EP111980 23.0151 -143.015 HU 67 1 23.0151 -143.015 TC 67 23.0450 -142.953 4 72 4 303
1980260N13256 1980 78 EP CP KAY 1980-09-26 06:00:00 TS 23.1100 -143.149 65 hurdat_epa main 1276 1266 O________OP___ hurdat_epa EP111980 23.1000 -143.200 HU 65 1 23.1000 -143.200 TC 65 23.1600 -143.095 4 75 3 310
1980260N13256 1980 78 EP CP KAY 1980-09-26 09:00:00 TS 23.2200 -143.248 main 1269 1260 P________PP___ EP111980 23.2150 -143.280 HU 72 1 23.2150 -143.280 TC 72 23.2450 -143.215 4 77 2 324
1980260N13256 1980 78 EP CP KAY 1980-09-26 12:00:00 TS 23.3000 -143.300 80 hurdat_epa main 1263 1263 O________OO___ hurdat_epa EP111980 23.3000 -143.300 HU 80 1 23.3000 -143.300 TC 80 23.3000 -143.300 4 80 1 324
1980260N13256 1980 78 EP CP KAY 1980-09-26 15:00:00 TS 23.3166 -143.324 main 1263 1263 P________PP___ EP111980 23.3150 -143.308 HU 72 1 23.3150 -143.308 TC 72 23.3246 -143.308 4 76 0 275
1980260N13256 1980 78 EP CP KAY 1980-09-26 18:00:00 TS 23.3037 -143.331 65 hurdat_epa main 1263 1263 O________OP___ hurdat_epa EP111980 23.3000 -143.300 HU 65 1 23.3000 -143.300 TC 65 23.3223 -143.285 4 72 0 0
1980260N13256 1980 78 EP CP KAY 1980-09-26 21:00:00 TS 23.3015 -143.345 main 1263 1253 P________PP___ EP111980 23.3000 -143.300 HU 65 1 23.3000 -143.300 TC 65 23.3089 -143.270 4 68 0 265
1980260N13256 1980 78 EP CP KAY 1980-09-27 00:00:00 TS 23.3000 -143.367 65 hurdat_epa main 1253 1253 O________OO___ hurdat_epa EP111980 23.3000 -143.300 HU 65 1 23.3000 -143.300 TC 65 23.3000 -143.300 4 65 0 0
1980260N13256 1980 78 EP CP KAY 1980-09-27 03:00:00 TS 23.3032 -143.360 main 1253 1253 P________PP___ EP111980 23.2924 -143.248 HU 65 1 23.2924 -143.248 TC 65 23.3498 -143.375 4 62 1 288
1980260N13256 1980 78 EP CP KAY 1980-09-27 06:00:00 TS 23.3169 -143.434 65 hurdat_epa main 1253 1227 O________OP___ hurdat_epa EP111980 23.3000 -143.300 HU 65 1 23.3000 -143.300 TC 65 23.4016 -143.507 4 60 3 283
1980260N13256 1980 78 EP CP KAY 1980-09-27 09:00:00 TS 23.3722 -143.686 main 1227 1199 P________PP___ EP111980 23.3726 -143.597 HU 60 0 23.3726 -143.597 TC 60 23.4277 -143.709 4 57 6 277
1980260N13256 1980 78 EP CP KAY 1980-09-27 12:00:00 TS 23.3833 -144.033 55 hurdat_epa main 1199 1166 O________OO___ hurdat_epa EP111980 23.4000 -144.000 TS 55 0 23.4000 -144.000 TC 55 23.4000 -144.000 2 55 6 261
1980260N13256 1980 78 EP CP KAY 1980-09-27 15:00:00 TS 23.2735 -144.345 main 1166 1120 P________PP___ EP111980 23.2871 -144.312 TS 52 0 23.2871 -144.312 TC 52 23.2625 -144.382 2 52 7 246
1980260N13256 1980 78 EP CP KAY 1980-09-27 18:00:00 TS 23.0955 -144.741 50 hurdat_epa main 1120 1055 O________OP___ hurdat_epa EP111980 23.1000 -144.700 TS 50 0 23.1000 -144.700 TC 50 23.0729 -144.847 2 50 10 246
1980260N13256 1980 78 EP CP KAY 1980-09-27 21:00:00 TS 22.8905 -145.299 main 1055 989 P________PP___ EP111980 22.8928 -145.278 TS 47 0 22.8928 -145.278 TC 47 22.8717 -145.363 2 47 11 250
1980260N13256 1980 78 EP CP KAY 1980-09-28 00:00:00 TS 22.7000 -145.900 45 hurdat_epa main 989 937 O________OO___ hurdat_epa EP111980 22.7000 -145.900 TS 45 0 22.7000 -145.900 TC 45 22.7000 -145.900 2 45 11 252
1980260N13256 1980 78 EP CP KAY 1980-09-28 03:00:00 TS 22.5688 -146.404 main 937 885 P________PP___ EP111980 22.5696 -146.407 TS 42 0 22.5696 -146.407 TC 42 22.5647 -146.395 2 43 9 258
1980260N13256 1980 78 EP CP KAY 1980-09-28 06:00:00 TS 22.4953 -146.901 40 hurdat_epa main 885 833 O________OP___ hurdat_epa EP111980 22.5000 -146.900 TS 40 0 22.5000 -146.900 TC 40 22.4715 -146.906 2 42 10 262
1980260N13256 1980 78 EP CP KAY 1980-09-28 09:00:00 TS 22.4402 -147.430 main 833 781 P________PP___ EP111980 22.4397 -147.428 TS 40 0 22.4397 -147.428 TC 40 22.4426 -147.439 2 41 10 270
1980260N13256 1980 78 EP CP KAY 1980-09-28 12:00:00 TS 22.5000 -148.000 40 hurdat_epa main 781 735 O________OO___ hurdat_epa EP111980 22.5000 -148.000 TS 40 0 22.5000 -148.000 TC 40 22.5000 -148.000 2 40 12 286
1980260N13256 1980 78 EP CP KAY 1980-09-28 15:00:00 TS 22.7591 -148.637 main 741 697 P________PP___ EP111980 22.7700 -148.642 TS 37 0 22.7700 -148.642 TC 37 22.7046 -148.610 2 38 13 296
1980260N13256 1980 78 EP CP KAY 1980-09-28 18:00:00 TS 23.0809 -149.291 35 hurdat_epa main 697 658 O________OP___ hurdat_epa EP111980 23.1000 -149.300 TS 35 0 23.1000 -149.300 TC 35 22.9854 -149.246 2 37 13 296
1980260N13256 1980 78 EP CP KAY 1980-09-28 21:00:00 TS 23.3329 -149.916 main 658 622 P________PP___ EP111980 23.3448 -149.922 TS 35 0 23.3448 -149.922 TC 35 23.2734 -149.885 2 36 12 291
1980260N13256 1980 78 EP CP KAY 1980-09-29 00:00:00 TS 23.5000 -150.500 35 hurdat_epa main 622 584 O________OO___ hurdat_epa EP111980 23.5000 -150.500 TS 35 0 23.5000 -150.500 TC 35 23.5000 -150.500 2 35 10 281
1980260N13256 1980 78 EP CP KAY 1980-09-29 03:00:00 TS 23.5323 -151.011 main 584 546 P________PP___ EP111980 23.5296 -151.008 TS 32 -1 23.5296 -151.008 TC 32 23.5456 -151.024 2 33 9 270
1980260N13256 1980 78 EP CP KAY 1980-09-29 06:00:00 TS 23.5045 -151.504 30 hurdat_epa main 546 510 O________OP___ hurdat_epa EP111980 23.5000 -151.500 TD 30 -1 23.5000 -151.500 TC 30 23.5273 -151.523 2 32 9 267
1980260N13256 1980 78 EP CP KAY 1980-09-29 09:00:00 TS 23.4798 -151.998 main 510 462 P________PP___ EP111980 23.4767 -151.990 TD 30 -1 23.4767 -151.990 TC 30 23.4955 -152.036 2 31 10 270
1980260N13256 1980 78 EP CP KAY 1980-09-29 12:00:00 TS 23.5000 -152.600 30 hurdat_epa main 462 411 O________OO___ hurdat_epa EP111980 23.5000 -152.600 TD 30 -1 23.5000 -152.600 TC 30 23.5000 -152.600 1 30 14 276
1980260N13256 1980 78 EP CP KAY 1980-09-29 15:00:00 TS 23.6143 -153.465 main 405 373 P________PP___ EP111980 23.6286 -153.500 TD 30 -1 23.6286 -153.500 TC 30 23.5429 -153.293 1 30 16 280
1980260N13256 1980 78 EP CP KAY 1980-09-29 18:00:00 TS 23.7727 -154.340 30 hurdat_epa main 378 361 O________OP___ hurdat_epa EP111980 23.8000 -154.400 TD 30 -1 23.8000 -154.400 TC 30 23.6365 -154.037 1 30 14 282
1980260N13256 1980 78 EP CP KAY 1980-09-29 21:00:00 TS 23.9010 -154.949 main 364 358 P________PP___ EP111980 23.9189 -154.981 TD 30 -1 23.9189 -154.981 TC 30 23.8116 -154.788 1 30 11 287
1980260N13256 1980 78 EP CP KAY 1980-09-30 00:00:00 TS 24.1000 -155.500 30 hurdat_epa main 372 353 O________OO___ hurdat_epa EP111980 24.1000 -155.500 TD 30 -1 24.1000 -155.500 TC 30 24.1000 -155.500 1 30 12 293
1980260N13256 1980 78 EP CP KAY 1980-09-30 03:00:00 TS 24.3875 -156.203 main 358 353 P________PP___ EP111980 24.3604 -156.215 TD 30 -1 24.3604 -156.215 TC 30 24.5227 -156.142 1 28 15 301
1980260N13256 1980 78 EP CP KAY 1980-09-30 06:00:00 TS 24.8425 -156.871 30 hurdat_epa main 371 371 O________OP___ hurdat_epa EP111980 24.8000 -156.900 TD 30 -1 24.8000 -156.900 TC 30 25.0548 -156.724 1 27 16 316
1980260N13256 1980 78 EP CP KAY 1980-09-30 09:00:00 TS 25.5097 -157.384 main 426 426 P________PP___ EP111980 25.4798 -157.407 TD 27 -1 25.4798 -157.407 TC 27 25.6597 -157.270 1 26 17 330
1980260N13256 1980 78 EP CP KAY 1980-09-30 12:00:00 TS 26.3000 -157.800 25 hurdat_epa main 493 O________OO___ hurdat_epa EP111980 26.3000 -157.800 TD 25 -1 26.3000 -157.800 TC 25 26.3000 -157.800 1 25 18 335

About IBTrACS Database

This database is a web-friendly format of International Best Track Archive for Climate Stewardship (IBTrACS), a global best track data archive curated by NOAA dating back to 1842.

Updated: 2021-10-25